createdAt,value
2022-08-05T00:02:07.945Z,20.35
2022-08-05T00:04:40.924Z,20.35
2022-08-05T00:07:21.837Z,20.32
2022-08-05T00:10:01.974Z,20.33
2022-08-05T00:12:31.433Z,20.38
2022-08-05T00:15:54.007Z,20.35
2022-08-05T00:17:50.136Z,20.33
2022-08-05T00:20:20.385Z,20.30
2022-08-05T00:22:57.383Z,20.31
2022-08-05T00:25:45.610Z,20.34
2022-08-05T00:28:16.307Z,20.37
2022-08-05T00:31:04.208Z,20.35
2022-08-05T00:34:53.626Z,20.33
2022-08-05T00:37:13.093Z,20.37
2022-08-05T00:39:16.869Z,20.35
2022-08-05T00:41:55.114Z,20.36
2022-08-05T00:44:30.856Z,20.33
2022-08-05T00:47:04.041Z,20.30
2022-08-05T00:49:51.045Z,20.27
2022-08-05T00:52:28.200Z,20.22
2022-08-05T00:54:58.618Z,20.17
2022-08-05T00:57:38.319Z,20.23
2022-08-05T01:00:18.015Z,20.11
2022-08-05T01:02:50.105Z,20.05
2022-08-05T01:05:19.703Z,20.02
2022-08-05T01:08:40.112Z,20.00
2022-08-05T01:10:51.501Z,20.01
2022-08-05T01:13:57.558Z,19.99
2022-08-05T01:16:44.129Z,20.06
2022-08-05T01:19:46.264Z,20.07
2022-08-05T01:22:42.025Z,20.05
2022-08-05T01:26:02.758Z,19.98
2022-08-05T01:28:39.836Z,19.97
2022-08-05T01:31:17.953Z,19.99
2022-08-05T01:34:07.424Z,19.97
2022-08-05T01:36:47.112Z,19.98
2022-08-05T01:39:46.042Z,20.00
2022-08-05T01:42:11.962Z,19.98
2022-08-05T01:44:45.694Z,19.92
2022-08-05T01:47:30.506Z,20.06
2022-08-05T01:50:19.391Z,20.06
2022-08-05T01:53:02.728Z,20.01
2022-08-05T01:55:36.456Z,19.99
2022-08-05T01:58:15.546Z,19.99
2022-08-05T02:00:51.442Z,20.04
2022-08-05T02:03:40.073Z,20.06
2022-08-05T02:06:37.392Z,20.04
2022-08-05T02:09:05.189Z,19.98
2022-08-05T02:12:05.784Z,19.97
2022-08-05T02:15:12.454Z,19.96
2022-08-05T02:18:32.320Z,19.92
2022-08-05T02:20:49.347Z,19.90
2022-08-05T02:23:23.077Z,19.86
2022-08-05T02:25:54.503Z,19.87
2022-08-05T02:28:32.095Z,19.85
2022-08-05T02:31:34.855Z,19.91
2022-08-05T02:34:10.027Z,20.00
2022-08-05T02:36:44.535Z,19.93
2022-08-05T02:39:15.657Z,19.87
2022-08-05T02:42:01.010Z,19.80
2022-08-05T02:44:32.792Z,19.72
2022-08-05T02:47:02.862Z,19.67
2022-08-05T02:49:40.574Z,19.70
2022-08-05T02:52:30.148Z,19.64
2022-08-05T02:55:02.014Z,19.60
2022-08-05T02:58:11.718Z,19.57
2022-08-05T03:00:27.010Z,19.51
2022-08-05T03:02:59.921Z,19.47
2022-08-05T03:06:55.331Z,19.41
2022-08-05T03:08:26.991Z,19.38
2022-08-05T03:11:53.367Z,19.36
2022-08-05T03:13:51.915Z,19.30
2022-08-05T03:16:32.892Z,19.15
2022-08-05T03:19:12.928Z,19.22
2022-08-05T03:21:48.948Z,19.18
2022-08-05T03:31:56.721Z,19.00
2022-08-05T03:34:26.425Z,18.83
2022-08-05T03:36:56.461Z,18.81
2022-08-05T03:39:26.859Z,18.89
2022-08-05T03:41:57.987Z,18.82
2022-08-05T03:44:29.017Z,18.82
2022-08-05T03:46:58.740Z,18.76
2022-08-05T03:49:31.193Z,18.76
2022-08-05T03:52:48.658Z,18.76
2022-08-05T03:56:03.960Z,18.77
2022-08-05T03:58:13.886Z,18.90
2022-08-05T04:00:51.567Z,18.82
2022-08-05T04:03:28.386Z,18.81
2022-08-05T04:06:00.641Z,18.75
2022-08-05T04:08:36.532Z,18.74
2022-08-05T04:11:08.575Z,18.75
2022-08-05T04:13:49.813Z,18.74
2022-08-05T04:16:24.343Z,18.69
2022-08-05T04:18:57.729Z,18.56
2022-08-05T04:22:09.469Z,18.54
2022-08-05T04:24:19.624Z,18.41
2022-08-05T04:26:52.888Z,18.43
2022-08-05T04:29:22.382Z,18.36
2022-08-05T04:31:52.517Z,18.32
2022-08-05T04:34:32.945Z,18.30
2022-08-05T04:37:05.699Z,18.26
2022-08-05T04:39:35.543Z,18.20
2022-08-05T04:42:05.213Z,18.15
2022-08-05T04:44:34.591Z,18.18
2022-08-05T04:47:09.778Z,18.29
2022-08-05T04:50:01.391Z,18.23
2022-08-05T04:52:33.405Z,18.23
2022-08-05T04:55:09.586Z,18.20
2022-08-05T04:57:47.507Z,18.09
2022-08-05T05:00:18.003Z,18.13
2022-08-05T05:02:47.406Z,18.11
2022-08-05T05:05:28.455Z,18.15
2022-08-05T05:08:02.638Z,18.26
2022-08-05T05:10:33.834Z,18.27
2022-08-05T05:13:03.960Z,18.29
2022-08-05T05:15:56.252Z,18.21
2022-08-05T05:18:31.361Z,18.08
2022-08-05T05:21:05.518Z,17.97
2022-08-05T05:24:01.948Z,17.86
2022-08-05T05:26:28.727Z,17.74
2022-08-05T05:29:02.612Z,17.73
2022-08-05T05:34:07.875Z,17.79
2022-08-05T05:36:37.505Z,17.83
2022-08-05T05:39:10.790Z,17.74
2022-08-05T05:41:42.703Z,17.71
2022-08-05T05:44:35.995Z,17.78
2022-08-05T05:47:04.234Z,17.79
2022-08-05T05:49:42.735Z,17.76
2022-08-05T05:52:13.344Z,17.80
2022-08-05T05:55:02.496Z,17.91
2022-08-05T05:57:51.909Z,18.08
2022-08-05T06:00:31.433Z,18.06
2022-08-05T06:03:39.855Z,18.04
2022-08-05T06:05:55.638Z,17.91
2022-08-05T06:08:32.531Z,17.95
2022-08-05T06:11:02.727Z,17.82
2022-08-05T06:13:40.896Z,17.71
2022-08-05T06:16:30.333Z,17.61
2022-08-05T06:19:05.864Z,17.64
2022-08-05T06:21:38.355Z,17.69
2022-08-05T06:24:14.762Z,17.68
2022-08-05T06:26:51.295Z,17.57
2022-08-05T06:29:25.410Z,17.61
2022-08-05T06:32:25.585Z,17.60
2022-08-05T06:35:00.116Z,17.58
2022-08-05T06:37:56.163Z,17.65
2022-08-05T06:40:27.944Z,17.71
2022-08-05T06:43:01.687Z,17.79
2022-08-05T06:45:44.580Z,17.84
2022-08-05T06:48:55.351Z,17.88
2022-08-05T06:51:21.819Z,17.86
2022-08-05T06:53:57.721Z,17.87
2022-08-05T06:56:27.895Z,18.02
2022-08-05T06:58:57.918Z,18.07
2022-08-05T07:01:32.187Z,18.18
2022-08-05T07:04:04.113Z,18.25
2022-08-05T07:06:33.946Z,18.35
2022-08-05T07:09:04.664Z,18.45
2022-08-05T07:11:36.950Z,18.55
2022-08-05T07:14:29.327Z,18.53
2022-08-05T07:18:00.304Z,18.53
2022-08-05T07:22:47.813Z,18.78
2022-08-05T07:25:54.165Z,18.86
2022-08-05T07:28:08.360Z,18.91
2022-08-05T07:30:41.670Z,18.94
2022-08-05T07:33:16.435Z,19.09
2022-08-05T07:36:02.054Z,19.19
2022-08-05T07:38:43.328Z,19.25
2022-08-05T07:42:13.532Z,19.38
2022-08-05T07:44:18.896Z,19.49
2022-08-05T07:46:50.451Z,19.45
2022-08-05T07:49:20.725Z,19.51
2022-08-05T07:51:54.548Z,19.52
2022-08-05T07:54:30.943Z,19.54
2022-08-05T07:57:22.390Z,19.48
2022-08-05T07:59:54.210Z,19.58
2022-08-05T08:02:30.898Z,19.58
2022-08-05T08:05:18.711Z,19.65
2022-08-05T08:07:59.145Z,19.72
2022-08-05T08:10:30.521Z,19.86
2022-08-05T08:13:01.583Z,19.97
2022-08-05T08:16:33.538Z,19.95
2022-08-05T08:18:21.248Z,19.97
2022-08-05T08:21:02.837Z,20.07
2022-08-05T08:24:02.489Z,20.17
2022-08-05T08:26:26.552Z,20.23
2022-08-05T08:28:59.723Z,20.34
2022-08-05T08:31:48.330Z,20.40
2022-08-05T08:34:18.635Z,20.43
2022-08-05T08:36:54.763Z,20.51
2022-08-05T08:39:26.135Z,20.67
2022-08-05T08:41:59.806Z,20.83
2022-08-05T08:45:23.302Z,20.94
2022-08-05T08:48:07.648Z,21.06
2022-08-05T08:50:33.197Z,21.22
2022-08-05T08:53:13.172Z,21.27
2022-08-05T08:56:04.083Z,21.35
2022-08-05T08:58:37.618Z,21.34
2022-08-05T09:01:15.870Z,21.45
2022-08-05T09:03:46.576Z,21.63
2022-08-05T09:06:21.141Z,21.72
2022-08-05T09:08:53.589Z,21.82
2022-08-05T09:11:51.884Z,21.91
2022-08-05T09:14:56.546Z,21.93
2022-08-05T09:17:09.675Z,21.91
2022-08-05T09:20:02.782Z,21.96
2022-08-05T09:23:18.625Z,22.00
2022-08-05T09:26:09.848Z,22.13
2022-08-05T09:28:41.063Z,22.10
2022-08-05T09:32:39.163Z,22.05
2022-08-05T09:34:10.640Z,22.05
2022-08-05T09:36:54.794Z,22.12
2022-08-05T09:39:41.935Z,22.05
2022-08-05T09:42:24.460Z,22.21
2022-08-05T09:45:17.376Z,22.19
2022-08-05T09:47:56.467Z,22.16
2022-08-05T09:50:44.079Z,22.30
2022-08-05T09:53:25.706Z,22.39
2022-08-05T09:56:04.634Z,22.41
2022-08-05T09:58:34.433Z,22.45
2022-08-05T10:01:22.571Z,22.60
2022-08-05T10:04:10.395Z,22.83
2022-08-05T10:06:54.785Z,22.96
2022-08-05T10:09:29.925Z,22.94
2022-08-05T10:12:18.767Z,23.07
2022-08-05T10:15:20.389Z,23.07
2022-08-05T10:18:16.684Z,22.87
2022-08-05T10:20:50.790Z,22.62
2022-08-05T10:23:55.633Z,22.42
2022-08-05T10:26:19.168Z,22.30
2022-08-05T10:28:53.924Z,22.15
2022-08-05T10:32:52.514Z,22.07
2022-08-05T10:34:16.941Z,22.03
2022-08-05T10:36:47.147Z,21.95
2022-08-05T10:39:25.090Z,21.93
2022-08-05T10:42:33.556Z,21.96
2022-08-05T10:45:21.399Z,21.99
2022-08-05T10:48:30.115Z,22.04
2022-08-05T10:51:01.131Z,22.17
2022-08-05T10:53:38.209Z,22.19
2022-08-05T10:56:21.478Z,22.20
2022-08-05T10:59:07.336Z,22.32
2022-08-05T11:01:54.560Z,22.58
2022-08-05T11:04:36.616Z,22.91
2022-08-05T11:07:11.998Z,23.24
2022-08-05T11:09:47.497Z,23.40
2022-08-05T11:12:42.284Z,23.51
2022-08-05T11:15:59.475Z,23.59
2022-08-05T11:18:34.119Z,23.78
2022-08-05T11:21:06.253Z,24.01
2022-08-05T11:24:04.787Z,24.24
2022-08-05T11:26:33.667Z,24.44
2022-08-05T11:29:12.812Z,24.70
2022-08-05T11:31:58.242Z,24.89
2022-08-05T11:34:52.095Z,24.98
2022-08-05T11:38:29.747Z,24.90
2022-08-05T11:41:12.785Z,24.99
2022-08-05T11:44:05.640Z,25.11
2022-08-05T11:47:09.819Z,25.05
2022-08-05T11:49:28.029Z,24.84
2022-08-05T11:51:58.012Z,24.86
2022-08-05T11:54:35.070Z,24.85
2022-08-05T11:57:08.270Z,24.96
2022-08-05T11:59:54.445Z,24.98
2022-08-05T12:02:33.110Z,24.98
2022-08-05T12:05:17.945Z,25.13
2022-08-05T12:08:10.270Z,25.25
2022-08-05T12:10:45.186Z,25.18
2022-08-05T12:13:47.633Z,25.20
2022-08-05T12:16:20.158Z,25.20
2022-08-05T12:18:56.298Z,25.14
2022-08-05T12:21:31.923Z,25.10
2022-08-05T12:24:06.710Z,25.02
2022-08-05T12:26:44.142Z,25.02
2022-08-05T12:29:29.048Z,25.07
2022-08-05T12:32:09.828Z,25.19
2022-08-05T12:34:40.531Z,25.31
2022-08-05T12:37:17.271Z,25.24
2022-08-05T12:39:53.969Z,25.39
2022-08-05T12:42:25.373Z,25.42
2022-08-05T12:44:54.900Z,25.50
2022-08-05T12:47:32.060Z,25.64
2022-08-05T12:50:14.934Z,25.76
2022-08-05T12:52:45.340Z,25.61
2022-08-05T12:55:25.452Z,25.23
2022-08-05T12:58:38.494Z,25.08
2022-08-05T13:02:02.594Z,25.09
2022-08-05T13:03:45.459Z,24.83
2022-08-05T13:06:19.932Z,24.70
2022-08-05T13:08:52.151Z,24.73
2022-08-05T13:12:02.794Z,24.85
2022-08-05T13:14:36.591Z,24.82
2022-08-05T13:17:12.110Z,24.88
2022-08-05T13:19:52.133Z,25.07
2022-08-05T13:22:28.351Z,24.99
2022-08-05T13:25:05.715Z,25.05
2022-08-05T13:27:56.246Z,25.34
2022-08-05T13:30:34.757Z,25.49
2022-08-05T13:33:06.835Z,25.22
2022-08-05T13:35:47.504Z,25.18
2022-08-05T13:38:30.958Z,25.07
2022-08-05T13:41:05.943Z,25.20
2022-08-05T13:43:43.571Z,25.33
2022-08-05T13:46:44.392Z,25.54
2022-08-05T13:49:13.692Z,25.39
2022-08-05T13:51:46.352Z,25.25
2022-08-05T13:54:17.171Z,25.02
2022-08-05T13:56:52.029Z,25.01
2022-08-05T13:59:24.328Z,25.13
2022-08-05T14:01:57.754Z,25.05
2022-08-05T14:04:49.769Z,25.05
2022-08-05T14:08:00.611Z,25.02
2022-08-05T14:10:29.246Z,25.08
2022-08-05T14:13:01.351Z,25.26
2022-08-05T14:16:07.313Z,25.35
2022-08-05T14:18:23.215Z,25.22
2022-08-05T14:20:54.886Z,25.01
2022-08-05T14:23:28.085Z,25.03
2022-08-05T14:26:06.340Z,25.08
2022-08-05T14:28:35.873Z,25.14
2022-08-05T14:32:02.164Z,25.31
2022-08-05T14:34:12.143Z,25.33
2022-08-05T14:36:43.268Z,25.14
2022-08-05T14:39:23.158Z,25.12
2022-08-05T14:42:15.967Z,25.03
2022-08-05T14:44:42.620Z,24.83
2022-08-05T14:47:12.244Z,24.53
2022-08-05T14:49:58.539Z,24.41
2022-08-05T14:52:51.725Z,24.31
2022-08-05T14:55:18.620Z,24.33
2022-08-05T14:57:54.275Z,24.32
2022-08-05T15:00:29.321Z,24.54
2022-08-05T15:02:59.480Z,24.65
2022-08-05T15:05:29.973Z,24.75
2022-08-05T15:08:37.952Z,24.82
2022-08-05T15:11:08.603Z,24.68
2022-08-05T15:13:46.001Z,24.67
2022-08-05T15:16:19.600Z,24.48
2022-08-05T15:18:51.524Z,24.13
2022-08-05T15:21:21.929Z,24.19
2022-08-05T15:23:53.763Z,24.31
2022-08-05T15:26:31.954Z,24.22
2022-08-05T15:29:02.637Z,24.13
2022-08-05T15:31:34.861Z,24.00
2022-08-05T15:34:32.337Z,24.03
2022-08-05T15:36:53.933Z,23.89
2022-08-05T15:41:00.018Z,23.95
2022-08-05T15:42:55.124Z,24.02
2022-08-05T15:45:02.526Z,24.04
2022-08-05T15:47:32.029Z,24.12
2022-08-05T15:50:06.165Z,24.22
2022-08-05T15:52:53.963Z,24.21
2022-08-05T15:56:03.204Z,24.13
2022-08-05T15:58:16.547Z,24.03
2022-08-05T16:01:04.466Z,24.15
2022-08-05T16:03:35.960Z,24.13
2022-08-05T16:06:12.116Z,24.10
2022-08-05T16:08:41.932Z,24.08
2022-08-05T16:11:13.337Z,24.13
2022-08-05T16:13:43.271Z,24.15
2022-08-05T16:16:12.562Z,24.24
2022-08-05T16:18:51.967Z,24.26
2022-08-05T16:21:59.347Z,24.02
2022-08-05T16:24:35.826Z,23.88
2022-08-05T16:27:04.305Z,23.78
2022-08-05T16:29:37.385Z,23.82
2022-08-05T16:32:09.983Z,23.75
2022-08-05T16:34:41.723Z,23.66
2022-08-05T16:38:16.429Z,23.58
2022-08-05T16:40:05.702Z,23.60
2022-08-05T16:42:37.260Z,23.46
2022-08-05T16:46:06.893Z,23.43
2022-08-05T16:48:02.592Z,23.49
2022-08-05T16:50:32.718Z,23.52
2022-08-05T16:53:12.612Z,23.40
2022-08-05T16:55:51.879Z,23.40
2022-08-05T16:58:21.278Z,23.41
2022-08-05T17:00:54.708Z,23.43
2022-08-05T17:03:24.474Z,23.42
2022-08-05T17:05:59.585Z,23.46
2022-08-05T17:08:36.227Z,23.41
2022-08-05T17:11:23.498Z,23.25
2022-08-05T17:14:05.330Z,23.24
2022-08-05T17:16:40.468Z,23.22
2022-08-05T17:19:10.890Z,23.12
2022-08-05T17:21:40.859Z,23.07
2022-08-05T17:24:19.324Z,22.96
2022-08-05T17:27:01.107Z,22.96
2022-08-05T17:29:33.059Z,22.69
2022-08-05T17:32:03.491Z,22.78
2022-08-05T17:34:34.883Z,22.68
2022-08-05T17:37:04.731Z,22.64
2022-08-05T17:39:55.220Z,22.61
2022-08-05T17:42:30.051Z,22.60
2022-08-05T17:45:08.060Z,22.62
2022-08-05T17:47:42.615Z,22.57
2022-08-05T17:50:12.667Z,22.45
2022-08-05T17:52:53.358Z,22.41
2022-08-05T17:55:34.152Z,22.36
2022-08-05T17:58:04.861Z,22.22
2022-08-05T18:00:36.239Z,22.15
2022-08-05T18:03:59.803Z,22.02
2022-08-05T18:06:11.110Z,21.91
2022-08-05T18:08:44.764Z,21.81
2022-08-05T18:11:24.645Z,21.77
2022-08-05T18:14:07.129Z,21.70
2022-08-05T18:16:51.017Z,21.60
2022-08-05T18:19:23.261Z,21.61
2022-08-05T18:22:08.775Z,21.51
2022-08-05T18:24:39.964Z,21.53
2022-08-05T18:27:12.373Z,21.51
2022-08-05T18:29:42.694Z,21.38
2022-08-05T18:32:19.962Z,21.27
2022-08-05T18:34:49.268Z,21.25
2022-08-05T18:37:34.426Z,21.24
2022-08-05T18:40:34.187Z,21.21
2022-08-05T18:42:58.442Z,21.16
2022-08-05T18:45:41.525Z,21.13
2022-08-05T18:48:30.552Z,21.02
2022-08-05T18:52:05.612Z,20.97
2022-08-05T18:54:04.078Z,20.89
2022-08-05T18:56:33.481Z,20.81
2022-08-05T18:59:03.224Z,20.72
2022-08-05T19:01:58.032Z,20.61
2022-08-05T19:04:29.359Z,20.51
2022-08-05T19:06:59.139Z,20.42
2022-08-05T19:09:28.528Z,20.25
2022-08-05T19:12:10.584Z,20.18
2022-08-05T19:15:00.522Z,20.09
2022-08-05T19:17:59.148Z,20.01
2022-08-05T19:20:20.982Z,19.94
2022-08-05T19:22:50.252Z,19.83
2022-08-05T19:25:21.567Z,19.75
2022-08-05T19:27:59.645Z,19.62
2022-08-05T19:30:29.414Z,19.58
2022-08-05T19:32:58.787Z,19.51
2022-08-05T19:35:56.530Z,19.41
2022-08-05T19:38:22.713Z,19.33
2022-08-05T19:40:56.087Z,19.22
2022-08-05T19:44:06.823Z,19.14
2022-08-05T19:46:16.786Z,19.07
2022-08-05T19:49:01.285Z,19.02
2022-08-05T19:52:08.810Z,19.00
2022-08-05T19:54:29.508Z,18.97
2022-08-05T19:57:02.663Z,18.92
2022-08-05T19:59:55.935Z,18.82
2022-08-05T20:02:31.457Z,18.73
2022-08-05T20:05:04.655Z,18.60
2022-08-05T20:07:46.662Z,18.56
2022-08-05T20:10:22.400Z,18.48
2022-08-05T20:12:55.139Z,18.42
2022-08-05T20:15:51.723Z,18.38
2022-08-05T20:18:33.156Z,18.34
2022-08-05T20:21:06.704Z,18.31
2022-08-05T20:23:50.293Z,18.28
2022-08-05T20:26:24.739Z,18.26
2022-08-05T20:28:56.890Z,18.22
2022-08-05T20:31:42.169Z,18.19
2022-08-05T20:34:18.696Z,18.15
2022-08-05T20:36:49.453Z,18.13
2022-08-05T20:39:19.437Z,18.06
2022-08-05T20:41:49.476Z,18.01
2022-08-05T20:44:30.110Z,17.97
2022-08-05T20:47:06.626Z,17.92
2022-08-05T20:49:38.072Z,17.87
2022-08-05T20:52:10.606Z,17.83
2022-08-05T20:54:59.088Z,17.80
2022-08-05T20:57:43.009Z,17.77
2022-08-05T21:00:34.990Z,17.73
2022-08-05T21:03:08.193Z,17.66
2022-08-05T21:05:53.464Z,17.61
2022-08-05T21:08:28.023Z,17.60
2022-08-05T21:11:12.107Z,17.56
2022-08-05T21:13:55.591Z,17.48
2022-08-05T21:16:31.010Z,17.41
2022-08-05T21:19:03.465Z,17.34
2022-08-05T21:21:39.830Z,17.31
2022-08-05T21:24:16.943Z,17.29
2022-08-05T21:26:53.642Z,17.26
2022-08-05T21:29:32.090Z,17.25
2022-08-05T21:32:02.857Z,17.20
2022-08-05T21:34:33.001Z,17.18
2022-08-05T21:37:04.867Z,17.13
2022-08-05T21:39:34.907Z,17.09
2022-08-05T21:42:28.905Z,17.03
2022-08-05T21:45:00.082Z,16.95
2022-08-05T21:47:54.967Z,16.95
2022-08-05T21:50:19.603Z,16.90
2022-08-05T21:52:51.573Z,16.87
2022-08-05T21:55:43.013Z,16.80
2022-08-05T21:58:11.794Z,16.75
2022-08-05T22:00:41.488Z,16.73
2022-08-05T22:03:20.695Z,16.66
2022-08-05T22:06:09.838Z,16.60
2022-08-05T22:08:42.836Z,16.52
2022-08-05T22:11:15.727Z,16.43
2022-08-05T22:14:34.437Z,16.38
2022-08-05T22:16:51.921Z,16.30
2022-08-05T22:20:01.069Z,16.28
2022-08-05T22:22:15.612Z,16.20
2022-08-05T22:24:58.076Z,16.22
2022-08-05T22:28:10.258Z,16.19
2022-08-05T22:30:32.463Z,16.14
2022-08-05T22:33:15.722Z,16.16
2022-08-05T22:35:49.235Z,16.05
2022-08-05T22:38:19.871Z,16.04
2022-08-05T22:40:54.983Z,16.02
2022-08-05T22:43:37.106Z,16.00
2022-08-05T22:46:13.035Z,15.98
2022-08-05T22:48:47.294Z,15.92
2022-08-05T22:51:23.236Z,15.90
2022-08-05T22:54:06.607Z,15.87
2022-08-05T22:56:36.619Z,15.88
2022-08-05T22:59:43.692Z,15.86
2022-08-05T23:02:05.725Z,15.82
2022-08-05T23:04:37.564Z,15.82
2022-08-05T23:07:07.272Z,15.78
2022-08-05T23:09:58.230Z,15.76
2022-08-05T23:12:28.654Z,15.74
2022-08-05T23:14:58.410Z,15.71
2022-08-05T23:17:34.937Z,15.67
2022-08-05T23:20:17.451Z,15.69
2022-08-05T23:22:48.691Z,15.64
2022-08-05T23:25:52.196Z,15.60
2022-08-05T23:28:09.362Z,15.58
2022-08-05T23:30:52.798Z,15.56
2022-08-05T23:34:02.678Z,15.53
2022-08-05T23:36:14.126Z,15.47
2022-08-05T23:38:43.910Z,15.50
2022-08-05T23:41:13.611Z,15.49
2022-08-05T23:44:03.647Z,15.47
2022-08-05T23:46:33.424Z,15.40
2022-08-05T23:49:17.091Z,15.38
2022-08-05T23:52:01.117Z,15.31
2022-08-05T23:54:38.113Z,15.22
2022-08-05T23:57:09.228Z,15.13
